createdAt,value
2022-11-29T00:01:09.094Z,63.07
2022-11-29T00:03:41.470Z,63.05
2022-11-29T00:06:16.447Z,62.98
2022-11-29T00:08:49.826Z,62.96
2022-11-29T00:11:37.990Z,63.04
2022-11-29T00:14:12.094Z,62.93
2022-11-29T00:16:44.546Z,62.75
2022-11-29T00:19:18.003Z,62.83
2022-11-29T00:21:50.643Z,62.92
2022-11-29T00:24:23.334Z,62.88
2022-11-29T00:26:55.968Z,62.87
2022-11-29T00:29:28.433Z,62.88
2022-11-29T00:32:00.743Z,63.04
2022-11-29T00:34:33.103Z,62.96
2022-11-29T00:37:05.818Z,62.90
2022-11-29T00:39:38.105Z,62.92
2022-11-29T00:42:10.432Z,62.83
2022-11-29T00:44:43.072Z,62.79
2022-11-29T00:47:15.543Z,62.97
2022-11-29T00:49:47.832Z,62.71
2022-11-29T00:52:20.074Z,62.82
2022-11-29T00:54:52.327Z,62.98
2022-11-29T00:57:24.672Z,62.97
2022-11-29T00:59:56.929Z,62.86
2022-11-29T01:02:29.768Z,63.03
2022-11-29T01:05:02.496Z,62.91
2022-11-29T01:07:34.817Z,62.99
2022-11-29T01:10:11.326Z,63.06
2022-11-29T01:12:43.579Z,63.02
2022-11-29T01:15:16.201Z,62.99
2022-11-29T01:17:49.299Z,62.98
2022-11-29T01:20:21.711Z,63.08
2022-11-29T01:22:54.361Z,62.87
2022-11-29T01:25:26.707Z,62.97
2022-11-29T01:27:59.153Z,62.85
2022-11-29T01:30:31.614Z,62.84
2022-11-29T01:33:04.343Z,63.03
2022-11-29T01:35:36.683Z,62.96
2022-11-29T01:38:09.069Z,62.87
2022-11-29T01:40:41.346Z,63.01
2022-11-29T01:43:18.626Z,63.16
2022-11-29T01:45:52.650Z,63.16
2022-11-29T01:48:28.797Z,63.11
2022-11-29T01:51:02.961Z,63.04
2022-11-29T01:53:35.976Z,63.19
2022-11-29T01:56:09.959Z,63.07
2022-11-29T01:58:43.104Z,62.94
2022-11-29T02:01:15.798Z,62.97
2022-11-29T02:03:48.208Z,63.06
2022-11-29T02:06:21.574Z,63.03
2022-11-29T02:08:53.910Z,62.98
2022-11-29T02:12:00.472Z,62.82
2022-11-29T02:14:51.027Z,63.12
2022-11-29T02:17:34.523Z,63.07
2022-11-29T02:20:44.066Z,63.03
2022-11-29T02:23:42.045Z,63.05
2022-11-29T02:26:30.325Z,62.97
2022-11-29T02:29:24.270Z,63.03
2022-11-29T02:32:52.033Z,63.12
2022-11-29T02:35:40.640Z,62.92
2022-11-29T02:38:31.281Z,62.94
2022-11-29T02:41:29.163Z,62.89
2022-11-29T02:44:33.799Z,63.04
2022-11-29T02:47:16.937Z,63.14
2022-11-29T02:50:14.174Z,63.06
2022-11-29T02:52:54.447Z,63.20
2022-11-29T02:55:34.890Z,63.14
2022-11-29T02:58:18.134Z,62.88
2022-11-29T03:00:58.451Z,62.93
2022-11-29T03:03:39.544Z,62.94
2022-11-29T03:06:22.417Z,63.01
2022-11-29T03:09:02.101Z,62.96
2022-11-29T03:11:42.531Z,62.82
2022-11-29T03:14:25.734Z,63.02
2022-11-29T03:17:09.660Z,62.94
2022-11-29T03:20:08.331Z,63.02
2022-11-29T03:22:49.234Z,63.02
2022-11-29T03:25:30.618Z,63.07
2022-11-29T03:28:12.998Z,63.26
2022-11-29T03:30:51.465Z,63.16
2022-11-29T03:33:34.367Z,63.23
2022-11-29T03:36:14.238Z,63.18
2022-11-29T03:38:48.429Z,63.31
2022-11-29T03:41:26.302Z,63.14
2022-11-29T03:44:03.826Z,63.21
2022-11-29T03:46:44.127Z,63.24
2022-11-29T03:49:24.201Z,63.24
2022-11-29T03:52:05.678Z,63.25
2022-11-29T03:54:50.874Z,63.24
2022-11-29T03:57:31.653Z,63.09
2022-11-29T04:00:09.175Z,63.24
2022-11-29T04:03:12.905Z,63.27
2022-11-29T04:06:04.047Z,63.30
2022-11-29T04:09:12.458Z,63.32
2022-11-29T04:12:32.643Z,63.42
2022-11-29T04:15:38.033Z,63.22
2022-11-29T04:18:35.126Z,63.28
2022-11-29T04:21:28.218Z,63.09
2022-11-29T04:24:21.375Z,63.20
2022-11-29T04:27:31.559Z,63.19
2022-11-29T04:30:20.206Z,63.52
2022-11-29T04:33:30.152Z,63.48
2022-11-29T04:36:22.074Z,63.17
2022-11-29T04:39:18.506Z,63.29
2022-11-29T04:42:29.211Z,63.19
2022-11-29T04:45:30.573Z,63.25
2022-11-29T04:48:18.060Z,63.17
2022-11-29T04:51:04.709Z,63.16
2022-11-29T04:53:58.043Z,63.31
2022-11-29T04:56:38.410Z,63.14
2022-11-29T04:59:17.297Z,63.07
2022-11-29T05:02:00.103Z,63.21
2022-11-29T05:04:38.132Z,63.22
2022-11-29T05:07:18.388Z,63.30
2022-11-29T05:10:01.885Z,63.37
2022-11-29T05:12:40.058Z,63.30
2022-11-29T05:15:42.538Z,63.17
2022-11-29T05:18:24.208Z,63.41
2022-11-29T05:21:07.661Z,63.35
2022-11-29T05:23:55.258Z,63.34
2022-11-29T05:26:31.882Z,63.38
2022-11-29T05:29:07.488Z,63.53
2022-11-29T05:31:57.509Z,63.49
2022-11-29T05:34:47.277Z,63.36
2022-11-29T05:37:32.831Z,63.68
2022-11-29T05:40:29.279Z,63.54
2022-11-29T05:43:16.790Z,63.68
2022-11-29T05:45:56.366Z,63.57
2022-11-29T05:48:36.687Z,63.61
2022-11-29T05:51:21.955Z,63.46
2022-11-29T05:54:06.663Z,63.63
2022-11-29T05:56:50.399Z,63.50
2022-11-29T05:59:26.558Z,63.59
2022-11-29T06:02:08.467Z,63.68
2022-11-29T06:04:57.544Z,63.51
2022-11-29T06:07:40.347Z,63.84
2022-11-29T06:10:17.920Z,63.67
2022-11-29T06:12:57.600Z,63.70
2022-11-29T06:15:52.770Z,63.74
2022-11-29T06:18:36.418Z,63.84
2022-11-29T06:21:22.467Z,63.78
2022-11-29T06:24:23.283Z,64.05
2022-11-29T06:27:17.922Z,64.06
2022-11-29T06:29:58.398Z,64.11
2022-11-29T06:32:41.108Z,63.94
2022-11-29T06:35:44.099Z,64.03
2022-11-29T06:38:23.483Z,64.14
2022-11-29T06:41:01.804Z,64.19
2022-11-29T06:43:35.732Z,64.35
2022-11-29T06:46:15.659Z,64.29
2022-11-29T06:48:56.577Z,64.43
2022-11-29T06:51:42.366Z,64.39
2022-11-29T06:54:27.617Z,64.36
2022-11-29T06:57:09.927Z,64.32
2022-11-29T06:59:56.488Z,64.34
2022-11-29T07:02:53.635Z,64.45
2022-11-29T07:05:29.341Z,64.44
2022-11-29T07:08:06.260Z,64.39
2022-11-29T07:10:42.120Z,64.45
2022-11-29T07:13:14.898Z,64.22
2022-11-29T07:16:01.574Z,64.50
2022-11-29T07:18:41.287Z,64.60
2022-11-29T07:21:22.185Z,64.47
2022-11-29T07:24:08.139Z,64.47
2022-11-29T07:26:48.122Z,64.58
2022-11-29T07:29:33.996Z,64.62
2022-11-29T07:32:18.423Z,64.51
2022-11-29T07:35:02.466Z,64.52
2022-11-29T07:37:42.606Z,64.61
2022-11-29T07:40:20.871Z,64.61
2022-11-29T07:43:10.247Z,64.59
2022-11-29T07:45:43.110Z,64.39
2022-11-29T07:48:17.704Z,64.54
2022-11-29T07:50:50.158Z,64.61
2022-11-29T07:53:24.467Z,64.73
2022-11-29T07:55:56.869Z,64.69
2022-11-29T07:58:29.450Z,64.74
2022-11-29T08:01:01.811Z,64.74
2022-11-29T08:03:35.587Z,64.64
2022-11-29T08:06:08.219Z,64.73
2022-11-29T08:08:43.973Z,64.88
2022-11-29T08:11:16.819Z,64.63
2022-11-29T08:13:49.098Z,64.71
2022-11-29T08:16:21.424Z,64.81
2022-11-29T08:18:53.932Z,64.85
2022-11-29T08:21:26.291Z,64.67
2022-11-29T08:23:58.650Z,64.42
2022-11-29T08:26:31.901Z,64.66
2022-11-29T08:29:04.454Z,64.83
2022-11-29T08:31:36.972Z,65.00
2022-11-29T08:34:10.871Z,64.84
2022-11-29T08:36:43.314Z,64.93
2022-11-29T08:39:15.633Z,64.71
2022-11-29T08:41:48.034Z,64.66
2022-11-29T08:44:20.313Z,64.66
2022-11-29T08:47:10.015Z,64.68
2022-11-29T08:50:01.352Z,64.65
2022-11-29T08:52:53.808Z,64.48
2022-11-29T08:55:28.028Z,64.80
2022-11-29T08:58:04.914Z,64.86
2022-11-29T09:00:37.852Z,64.58
2022-11-29T09:03:28.202Z,64.68
2022-11-29T09:06:00.555Z,64.88
2022-11-29T09:08:32.908Z,64.82
2022-11-29T09:11:13.286Z,64.64
2022-11-29T09:13:47.460Z,64.38
2022-11-29T09:16:23.180Z,64.53
2022-11-29T09:18:57.572Z,64.52
2022-11-29T09:21:32.167Z,64.83
2022-11-29T09:24:06.690Z,64.52
2022-11-29T09:26:42.021Z,64.72
2022-11-29T09:29:14.553Z,64.56
2022-11-29T09:31:47.316Z,64.75
2022-11-29T09:34:20.263Z,64.85
2022-11-29T09:36:52.537Z,64.66
2022-11-29T09:39:24.890Z,64.96
2022-11-29T09:42:09.915Z,64.99
2022-11-29T09:44:52.455Z,64.83
2022-11-29T09:47:39.231Z,64.67
2022-11-29T09:50:29.828Z,64.76
2022-11-29T09:53:17.626Z,64.90
2022-11-29T09:56:06.360Z,64.76
2022-11-29T09:58:47.713Z,65.00
2022-11-29T10:01:26.250Z,65.05
2022-11-29T10:04:02.428Z,64.91
2022-11-29T10:06:41.628Z,65.12
2022-11-29T10:09:21.895Z,65.25
2022-11-29T10:12:06.558Z,64.89
2022-11-29T10:14:45.618Z,65.03
2022-11-29T10:17:33.115Z,65.23
2022-11-29T10:20:12.547Z,65.11
2022-11-29T10:22:53.626Z,65.07
2022-11-29T10:25:32.238Z,65.05
2022-11-29T10:28:05.427Z,65.08
2022-11-29T10:30:38.755Z,65.05
2022-11-29T10:33:18.653Z,65.22
2022-11-29T10:35:52.580Z,65.27
2022-11-29T10:38:32.528Z,65.47
2022-11-29T10:41:08.876Z,65.49
2022-11-29T10:43:43.239Z,65.36
2022-11-29T10:46:27.623Z,65.61
2022-11-29T10:49:03.331Z,65.36
2022-11-29T10:51:36.375Z,65.51
2022-11-29T10:54:23.421Z,65.34
2022-11-29T10:56:57.465Z,65.62
2022-11-29T10:59:33.115Z,65.83
2022-11-29T11:02:06.808Z,65.86
2022-11-29T11:04:46.582Z,65.98
2022-11-29T11:07:28.415Z,65.82
2022-11-29T11:10:01.292Z,65.76
2022-11-29T11:12:35.331Z,65.81
2022-11-29T11:15:28.891Z,65.75
2022-11-29T11:18:05.035Z,66.16
2022-11-29T11:20:41.132Z,66.11
2022-11-29T11:23:25.584Z,66.15
2022-11-29T11:26:03.231Z,66.44
2022-11-29T11:28:43.604Z,66.27
2022-11-29T11:31:16.827Z,66.27
2022-11-29T11:33:49.230Z,66.22
2022-11-29T11:36:27.304Z,66.16
2022-11-29T11:39:11.045Z,66.30
2022-11-29T11:42:02.570Z,66.56
2022-11-29T11:44:48.478Z,66.61
2022-11-29T11:47:24.489Z,66.47
2022-11-29T11:50:08.053Z,66.59
2022-11-29T11:52:50.436Z,66.58
2022-11-29T11:55:38.617Z,66.84
2022-11-29T11:58:23.366Z,66.82
2022-11-29T12:01:05.259Z,66.78
2022-11-29T12:03:46.418Z,66.92
2022-11-29T12:06:40.270Z,67.00
2022-11-29T12:09:23.004Z,67.06
2022-11-29T12:12:03.631Z,67.29
2022-11-29T12:14:42.260Z,67.10
2022-11-29T12:17:21.839Z,67.20
2022-11-29T12:20:09.364Z,66.96
2022-11-29T12:22:49.626Z,67.18
2022-11-29T12:25:25.891Z,67.43
2022-11-29T12:27:58.272Z,67.20
2022-11-29T12:30:31.535Z,67.40
2022-11-29T12:33:23.170Z,67.54
2022-11-29T12:36:27.435Z,67.36
2022-11-29T12:39:13.804Z,67.66
2022-11-29T12:41:54.274Z,67.26
2022-11-29T12:44:39.510Z,67.69
2022-11-29T12:47:39.432Z,67.53
2022-11-29T12:50:24.079Z,67.88
2022-11-29T12:53:06.321Z,67.77
2022-11-29T12:55:50.294Z,68.02
2022-11-29T12:58:33.436Z,67.96
2022-11-29T13:01:15.776Z,67.88
2022-11-29T13:03:59.021Z,67.81
2022-11-29T13:06:41.235Z,67.87
2022-11-29T13:09:42.024Z,68.01
2022-11-29T13:12:21.105Z,68.03
2022-11-29T13:15:02.018Z,67.86
2022-11-29T13:17:45.094Z,68.12
2022-11-29T13:20:27.704Z,68.08
2022-11-29T13:23:10.646Z,68.22
2022-11-29T13:25:46.686Z,67.93
2022-11-29T13:28:25.652Z,68.19
2022-11-29T13:31:01.948Z,68.16
2022-11-29T13:33:43.563Z,68.21
2022-11-29T13:36:22.643Z,68.30
2022-11-29T13:39:06.869Z,68.08
2022-11-29T13:41:47.671Z,68.13
2022-11-29T13:44:28.994Z,68.37
2022-11-29T13:47:08.260Z,68.17
2022-11-29T13:50:02.736Z,68.18
2022-11-29T13:52:41.467Z,68.14
2022-11-29T13:55:31.336Z,68.20
2022-11-29T13:58:16.799Z,68.40
2022-11-29T14:00:52.398Z,68.33
2022-11-29T14:03:38.542Z,68.38
2022-11-29T14:06:18.949Z,68.38
2022-11-29T14:09:25.291Z,68.57
2022-11-29T14:12:20.086Z,68.79
2022-11-29T14:14:56.727Z,68.67
2022-11-29T14:17:50.675Z,68.56
2022-11-29T14:20:59.062Z,68.64
2022-11-29T14:23:38.236Z,68.64
2022-11-29T14:26:31.570Z,68.75
2022-11-29T14:29:06.652Z,68.69
2022-11-29T14:31:56.663Z,68.89
2022-11-29T14:34:39.784Z,68.75
2022-11-29T14:37:27.000Z,68.84
2022-11-29T14:40:02.843Z,68.80
2022-11-29T14:42:33.453Z,68.90
2022-11-29T14:45:22.492Z,68.98
2022-11-29T14:47:55.099Z,68.94
2022-11-29T14:50:37.315Z,69.08
2022-11-29T14:53:29.352Z,68.92
2022-11-29T14:56:32.258Z,68.95
2022-11-29T14:59:37.442Z,68.77
2022-11-29T15:02:27.486Z,68.98
2022-11-29T15:05:08.255Z,68.83
2022-11-29T15:07:46.213Z,69.02
2022-11-29T15:10:24.307Z,69.13
2022-11-29T15:12:57.994Z,69.13
2022-11-29T15:15:55.681Z,69.07
2022-11-29T15:18:50.630Z,69.03
2022-11-29T15:21:33.835Z,69.23
2022-11-29T15:24:14.533Z,69.22
2022-11-29T15:26:59.534Z,69.34
2022-11-29T15:29:33.033Z,69.12
2022-11-29T15:32:08.476Z,69.49
2022-11-29T15:34:45.243Z,69.50
2022-11-29T15:37:25.760Z,69.50
2022-11-29T15:40:12.670Z,69.64
2022-11-29T15:42:50.186Z,69.47
2022-11-29T15:45:32.677Z,69.76
2022-11-29T15:48:18.284Z,69.76
2022-11-29T15:50:59.722Z,69.87
2022-11-29T15:53:35.712Z,69.58
2022-11-29T15:56:14.230Z,69.80
2022-11-29T15:58:49.176Z,69.75
2022-11-29T16:01:23.792Z,69.77
2022-11-29T16:03:58.395Z,69.78
2022-11-29T16:06:35.691Z,69.98
2022-11-29T16:09:11.166Z,69.65
2022-11-29T16:11:44.240Z,70.01
2022-11-29T16:14:25.214Z,69.89
2022-11-29T16:17:00.656Z,70.18
2022-11-29T16:19:39.376Z,70.22
2022-11-29T16:22:19.309Z,70.22
2022-11-29T16:25:04.075Z,70.13
2022-11-29T16:27:37.782Z,70.17
2022-11-29T16:30:25.417Z,70.53
2022-11-29T16:33:00.216Z,70.46
2022-11-29T16:35:35.028Z,70.44
2022-11-29T16:38:17.684Z,70.26
2022-11-29T16:41:05.854Z,70.49
2022-11-29T16:43:54.287Z,70.49
2022-11-29T16:46:41.017Z,70.53
2022-11-29T16:49:35.211Z,70.79
2022-11-29T16:52:26.455Z,70.86
2022-11-29T16:54:59.485Z,70.55
2022-11-29T16:57:32.707Z,70.71
2022-11-29T17:00:10.742Z,70.89
2022-11-29T17:02:43.079Z,71.08
2022-11-29T17:05:15.615Z,71.01
2022-11-29T17:07:48.109Z,70.89
2022-11-29T17:10:23.937Z,70.78
2022-11-29T17:12:56.221Z,70.79
2022-11-29T17:15:28.526Z,70.97
2022-11-29T17:18:00.722Z,71.01
2022-11-29T17:20:32.989Z,71.19
2022-11-29T17:23:05.219Z,71.18
2022-11-29T17:25:37.549Z,70.89
2022-11-29T17:28:10.172Z,71.09
2022-11-29T17:30:42.382Z,71.13
2022-11-29T17:33:14.693Z,71.29
2022-11-29T17:35:47.044Z,71.10
2022-11-29T17:38:19.396Z,71.03
2022-11-29T17:40:51.729Z,71.39
2022-11-29T17:43:23.963Z,71.33
2022-11-29T17:45:56.310Z,71.22
2022-11-29T17:48:33.505Z,71.20
2022-11-29T17:51:17.250Z,71.38
2022-11-29T17:54:01.081Z,71.38
2022-11-29T17:56:34.498Z,71.25
2022-11-29T17:59:07.511Z,71.22
2022-11-29T18:01:39.880Z,71.44
2022-11-29T18:04:12.392Z,71.31
2022-11-29T18:06:49.853Z,71.38
2022-11-29T18:09:22.722Z,71.45
2022-11-29T18:11:55.138Z,71.36
2022-11-29T18:14:28.519Z,71.34
2022-11-29T18:17:01.038Z,71.43
2022-11-29T18:19:33.463Z,71.39
2022-11-29T18:22:05.737Z,71.46
2022-11-29T18:24:38.034Z,71.34
2022-11-29T18:27:10.418Z,71.65
2022-11-29T18:29:42.663Z,71.72
2022-11-29T18:32:15.063Z,71.67
2022-11-29T18:34:47.636Z,71.59
2022-11-29T18:37:40.043Z,71.71
2022-11-29T18:40:14.923Z,71.86
2022-11-29T18:42:47.371Z,71.69
2022-11-29T18:45:19.732Z,71.71
2022-11-29T18:47:52.068Z,71.71
2022-11-29T18:50:24.343Z,71.53
2022-11-29T18:52:57.332Z,71.59
2022-11-29T18:55:30.297Z,71.79
2022-11-29T18:58:02.630Z,71.65
2022-11-29T19:00:34.901Z,71.64
2022-11-29T19:03:07.202Z,71.67
2022-11-29T19:05:39.472Z,71.65
2022-11-29T19:08:11.697Z,71.83
2022-11-29T19:10:44.872Z,71.63
2022-11-29T19:13:17.192Z,71.76
2022-11-29T19:15:56.127Z,71.69
2022-11-29T19:18:29.259Z,71.67
2022-11-29T19:21:09.363Z,71.79
2022-11-29T19:23:42.929Z,71.60
2022-11-29T19:26:16.608Z,71.65
2022-11-29T19:28:49.562Z,71.82
2022-11-29T19:31:24.791Z,71.86
2022-11-29T19:33:58.400Z,71.65
2022-11-29T19:36:32.531Z,71.78
2022-11-29T19:39:05.978Z,71.93
2022-11-29T19:41:38.992Z,71.91
2022-11-29T19:44:12.443Z,72.00
2022-11-29T19:46:48.301Z,71.65
2022-11-29T19:49:19.089Z,71.83
2022-11-29T19:51:51.415Z,72.01
2022-11-29T19:54:23.632Z,71.86
2022-11-29T19:56:56.126Z,72.05
2022-11-29T19:59:28.414Z,72.01
2022-11-29T20:02:00.797Z,72.00
2022-11-29T20:04:33.143Z,71.86
2022-11-29T20:07:06.337Z,72.30
2022-11-29T20:09:38.645Z,72.14
2022-11-29T20:12:10.932Z,72.06
2022-11-29T20:14:43.193Z,72.06
2022-11-29T20:17:15.454Z,72.12
2022-11-29T20:19:48.004Z,72.09
2022-11-29T20:22:20.544Z,72.40
2022-11-29T20:24:54.483Z,71.91
2022-11-29T20:27:26.808Z,72.11
2022-11-29T20:29:59.176Z,72.11
2022-11-29T20:32:31.825Z,72.17
2022-11-29T20:35:05.346Z,72.27
2022-11-29T20:38:01.405Z,72.10
2022-11-29T20:40:45.342Z,72.08
2022-11-29T20:43:22.746Z,72.29
2022-11-29T20:45:55.583Z,72.26
2022-11-29T20:48:29.339Z,72.37
2022-11-29T20:51:03.883Z,72.43
2022-11-29T20:53:39.323Z,72.27
2022-11-29T20:56:13.043Z,72.15
2022-11-29T20:58:45.380Z,72.21
2022-11-29T21:01:17.750Z,72.39
2022-11-29T21:03:50.083Z,72.33
2022-11-29T21:06:22.424Z,72.36
2022-11-29T21:08:54.832Z,72.22
2022-11-29T21:11:27.822Z,72.26
2022-11-29T21:14:03.936Z,72.22
2022-11-29T21:16:36.861Z,72.29
2022-11-29T21:19:13.937Z,72.24
2022-11-29T21:21:58.332Z,72.04
2022-11-29T21:24:37.987Z,72.26
2022-11-29T21:27:16.171Z,72.32
2022-11-29T21:29:49.493Z,72.32
2022-11-29T21:32:24.666Z,72.10
2022-11-29T21:34:57.035Z,72.23
2022-11-29T21:37:31.225Z,72.50
2022-11-29T21:40:03.625Z,72.31
2022-11-29T21:42:36.373Z,72.23
2022-11-29T21:45:15.165Z,72.30
2022-11-29T21:47:48.701Z,72.21
2022-11-29T21:50:21.070Z,72.30
2022-11-29T21:52:55.364Z,72.15
2022-11-29T21:55:32.145Z,72.32
2022-11-29T21:58:04.848Z,72.06
2022-11-29T22:00:37.668Z,72.15
2022-11-29T22:03:11.340Z,72.32
2022-11-29T22:05:43.576Z,72.08
2022-11-29T22:08:15.906Z,72.12
2022-11-29T22:10:48.137Z,72.09
2022-11-29T22:13:20.362Z,72.19
2022-11-29T22:15:52.614Z,72.50
2022-11-29T22:18:27.925Z,72.29
2022-11-29T22:21:05.299Z,72.18
2022-11-29T22:23:37.667Z,72.28
2022-11-29T22:26:10.220Z,72.27
2022-11-29T22:28:42.502Z,72.32
2022-11-29T22:31:15.386Z,72.16
2022-11-29T22:33:47.757Z,72.38
2022-11-29T22:36:19.970Z,72.23
2022-11-29T22:38:52.603Z,72.33
2022-11-29T22:41:24.978Z,72.12
2022-11-29T22:43:57.359Z,72.31
2022-11-29T22:46:30.991Z,72.21
2022-11-29T22:49:03.726Z,72.21
2022-11-29T22:51:37.743Z,72.35
2022-11-29T22:54:11.834Z,72.19
2022-11-29T22:56:45.864Z,72.06
2022-11-29T22:59:18.236Z,72.16
2022-11-29T23:01:50.670Z,72.02
2022-11-29T23:04:23.031Z,72.06
2022-11-29T23:06:55.299Z,72.36
2022-11-29T23:09:27.565Z,72.24
2022-11-29T23:11:59.878Z,72.13
2022-11-29T23:14:32.347Z,72.12
2022-11-29T23:17:04.655Z,72.21
2022-11-29T23:19:36.905Z,72.20
2022-11-29T23:22:09.161Z,72.20
2022-11-29T23:24:42.600Z,72.10
2022-11-29T23:27:14.840Z,72.09
2022-11-29T23:29:47.120Z,72.10
2022-11-29T23:32:19.350Z,72.00
2022-11-29T23:34:51.624Z,72.12
2022-11-29T23:37:23.875Z,72.23
2022-11-29T23:39:56.106Z,71.93
2022-11-29T23:42:28.457Z,72.18
2022-11-29T23:45:00.686Z,72.17
2022-11-29T23:47:33.198Z,72.07
2022-11-29T23:50:05.688Z,72.15
2022-11-29T23:52:38.257Z,72.08
2022-11-29T23:55:12.886Z,72.32
2022-11-29T23:57:45.181Z,72.22
